Time;durP1;ratioP1;P1;durP2;ratioP2;P2;SDS_P1;SDS_P2;PMS_P1;PMS_P2;Temp;Humidity;BMP_temperature;BMP_pressure;BME280_temperature;BME280_humidity;BME280_pressure;Samples;Min_cycle;Max_cycle;Signal;HPM_P1;HPM_P2
2024/01/10 00:00:27;;;;;;;6.67;4.97;;;;;;;-4.79;100.00;144883.09;5115358;28;20176;-60
2024/01/10 00:02:54;;;;;;;5.87;5.03;;;;;;;-4.99;100.00;144831.97;5115843;28;20713;-61
2024/01/10 00:05:22;;;;;;;5.13;4.70;;;;;;;-4.87;100.00;144863.13;5115195;28;20231;-60
2024/01/10 00:07:49;;;;;;;5.03;4.53;;;;;;;-5.00;100.00;144829.47;5115209;28;20187;-60
2024/01/10 00:10:18;;;;;;;5.67;5.27;;;;;;;-4.87;100.00;144861.88;5115351;28;20207;-60
2024/01/10 00:12:45;;;;;;;5.60;5.03;;;;;;;-4.90;100.00;144854.41;5114968;28;20183;-61
2024/01/10 00:15:12;;;;;;;7.53;5.37;;;;;;;-5.10;100.00;144807.06;5115054;28;20191;-61
2024/01/10 00:17:40;;;;;;;5.23;4.83;;;;;;;-5.10;100.00;144807.06;5115441;28;20656;-60
2024/01/10 00:20:09;;;;;;;5.23;4.93;;;;;;;-4.94;100.00;144844.44;5115154;28;20180;-60
2024/01/10 00:22:36;;;;;;;4.93;4.63;;;;;;;-4.95;100.00;144841.94;5114836;28;20183;-60
2024/01/10 00:25:04;;;;;;;5.33;5.03;;;;;;;-4.89;100.00;144858.16;5114749;27;20248;-59
2024/01/10 00:27:32;;;;;;;5.63;5.33;;;;;;;-4.97;100.00;144838.22;5114772;28;20190;-62
2024/01/10 00:29:59;;;;;;;5.87;5.47;;;;;;;-4.86;100.00;144864.38;5114914;27;20195;-60
2024/01/10 00:32:26;;;;;;;9.17;5.80;;;;;;;-4.95;100.00;144843.19;5115071;28;20561;-61
2024/01/10 00:34:53;;;;;;;5.30;4.90;;;;;;;-4.98;100.00;144835.72;5114684;28;20183;-61
2024/01/10 00:37:20;;;;;;;5.03;4.73;;;;;;;-5.29;100.00;144759.66;5114570;28;20183;-61
2024/01/10 00:39:48;;;;;;;5.67;5.17;;;;;;;-5.28;100.00;144762.16;5114739;28;20191;-60
2024/01/10 00:42:15;;;;;;;6.87;5.30;;;;;;;-5.50;100.00;144706.06;5114618;28;20244;-60
2024/01/10 00:44:43;;;;;;;5.10;4.80;;;;;;;-5.19;100.00;144783.34;5114468;28;20187;-60
2024/01/10 00:47:11;;;;;;;5.63;5.23;;;;;;;-5.17;100.00;144789.56;5114471;28;20188;-60
2024/01/10 00:49:38;;;;;;;7.13;5.30;;;;;;;-5.26;100.00;144767.13;5114308;27;20210;-60
2024/01/10 00:52:06;;;;;;;5.53;5.03;;;;;;;-5.38;100.00;144737.22;5114263;28;20248;-60
2024/01/10 00:54:33;;;;;;;4.73;4.43;;;;;;;-5.24;100.00;144772.13;5114309;28;20290;-61
2024/01/10 00:57:00;;;;;;;5.83;5.43;;;;;;;-5.24;100.00;144770.88;5114246;28;20212;-59
2024/01/10 00:59:27;;;;;;;7.00;5.23;;;;;;;-5.07;100.00;144814.53;5114513;27;20187;-59
2024/01/10 01:01:55;;;;;;;5.07;4.70;;;;;;;-5.04;100.00;144819.50;5114385;28;20244;-60
2024/01/10 01:04:22;;;;;;;4.80;4.50;;;;;;;-5.08;100.00;144812.03;5114566;28;20221;-61
2024/01/10 01:06:49;;;;;;;5.53;5.23;;;;;;;-5.07;100.00;144814.53;5114302;28;20252;-61
2024/01/10 01:09:16;;;;;;;8.07;5.50;;;;;;;-5.04;100.00;144820.75;5114139;28;20256;-61
2024/01/10 01:11:43;;;;;;;5.87;5.40;;;;;;;-5.34;100.00;144745.94;5114054;28;20179;-60
2024/01/10 01:14:11;;;;;;;5.97;5.47;;;;;;;-5.08;100.00;144810.78;5114209;28;20282;-61
2024/01/10 01:16:38;;;;;;;5.33;4.93;;;;;;;-5.09;100.00;144808.25;5114405;28;20209;-60
2024/01/10 01:19:06;;;;;;;5.73;5.23;;;;;;;-5.24;100.00;144772.13;5114149;27;20603;-61
2024/01/10 01:21:33;;;;;;;6.23;5.63;;;;;;;-4.99;100.00;144831.97;5113831;28;20207;-60
2024/01/10 01:24:00;;;;;;;5.57;5.17;;;;;;;-5.48;100.00;144712.31;5113996;28;20538;-61
2024/01/10 01:26:27;;;;;;;5.47;5.07;;;;;;;-5.04;100.00;144819.50;5114087;28;20272;-60
2024/01/10 01:28:54;;;;;;;5.70;5.20;;;;;;;-5.04;100.00;144819.50;5113426;28;20184;-60
2024/01/10 01:31:21;;;;;;;5.47;5.07;;;;;;;-5.54;100.00;144698.59;5113774;28;20183;-60
2024/01/10 01:33:48;;;;;;;5.60;5.07;;;;;;;-5.03;100.00;144823.25;5114066;28;20628;-61
2024/01/10 01:36:17;;;;;;;5.93;4.90;;;;;;;-5.05;100.00;144818.28;5113479;28;20183;-60
2024/01/10 01:38:44;;;;;;;5.33;5.03;;;;;;;-4.99;100.00;144833.22;5113558;28;20221;-61
2024/01/10 01:41:11;;;;;;;5.53;5.03;;;;;;;-5.04;100.00;144820.75;5113333;28;20179;-60
2024/01/10 01:43:38;;;;;;;6.17;5.67;;;;;;;-5.34;100.00;144747.19;5113641;28;20216;-60
2024/01/10 01:46:05;;;;;;;6.13;5.63;;;;;;;-5.05;100.00;144817.03;5113156;28;20225;-61
2024/01/10 01:48:33;;;;;;;6.70;6.10;;;;;;;-5.17;100.00;144789.56;5113101;27;20186;-61
2024/01/10 01:51:05;;;;;;;5.93;5.43;;;;;;;-5.31;100.00;144753.44;5113113;28;20287;-60
2024/01/10 01:53:35;;;;;;;6.73;6.03;;;;;;;-5.29;100.00;144759.66;5113223;28;20648;-60
2024/01/10 01:56:05;;;;;;;7.00;6.40;;;;;;;-5.55;100.00;144696.09;5112558;28;20183;-60
2024/01/10 01:58:33;;;;;;;6.53;5.93;;;;;;;-5.50;100.00;144706.06;5113301;28;20580;-59
2024/01/10 02:01:02;;;;;;;6.37;5.87;;;;;;;-5.68;100.00;144662.44;5113449;28;20184;-59
2024/01/10 02:03:30;;;;;;;6.80;6.10;;;;;;;-5.49;100.00;144709.81;5113071;28;20292;-61
2024/01/10 02:05:58;;;;;;;6.20;5.70;;;;;;;-5.51;100.00;144704.81;5113205;28;20193;-59
2024/01/10 02:08:25;;;;;;;6.27;5.77;;;;;;;-5.66;100.00;144668.69;5112853;28;20183;-61
2024/01/10 02:10:53;;;;;;;6.03;5.53;;;;;;;-5.88;100.00;144612.66;5112731;28;20200;-61
2024/01/10 02:13:20;;;;;;;6.07;5.73;;;;;;;-5.52;100.00;144702.34;5113024;28;20638;-61
2024/01/10 02:15:47;;;;;;;6.53;5.77;;;;;;;-5.58;100.00;144688.63;5113045;28;20569;-61
2024/01/10 02:18:14;;;;;;;5.67;5.27;;;;;;;-5.94;100.00;144598.94;5112642;28;20191;-59
2024/01/10 02:20:44;;;;;;;5.63;5.23;;;;;;;-5.80;100.00;144632.53;5112739;28;20180;-60
2024/01/10 02:23:11;;;;;;;6.40;5.87;;;;;;;-5.67;100.00;144664.94;5112867;28;20239;-60
2024/01/10 02:25:41;;;;;;;5.60;5.20;;;;;;;-6.17;100.00;144542.91;5112520;28;20199;-60
2024/01/10 02:28:09;;;;;;;7.00;6.07;;;;;;;-5.63;100.00;144676.16;5112666;28;20251;-60
2024/01/10 02:30:36;;;;;;;6.60;6.10;;;;;;;-5.65;100.00;144671.19;5112519;28;20225;-60
2024/01/10 02:33:03;;;;;;;6.37;5.87;;;;;;;-5.60;100.00;144683.63;5112297;28;20190;-60
2024/01/10 02:35:32;;;;;;;5.83;5.43;;;;;;;-5.65;100.00;144669.94;5112675;28;20194;-60
2024/01/10 02:38:00;;;;;;;6.37;5.87;;;;;;;-6.03;100.00;144576.56;5112766;28;20603;-61
2024/01/10 02:40:27;;;;;;;7.60;5.33;;;;;;;-5.64;100.00;144673.66;5112406;28;20182;-60
2024/01/10 02:42:55;;;;;;;5.67;5.20;;;;;;;-5.81;100.00;144630.09;5112380;28;20187;-61
2024/01/10 02:45:22;;;;;;;6.80;6.20;;;;;;;-5.70;100.00;144657.47;5112532;28;20188;-60
2024/01/10 02:47:49;;;;;;;7.13;5.47;;;;;;;-6.11;100.00;144557.84;5112202;28;20179;-61
2024/01/10 02:50:17;;;;;;;5.73;5.33;;;;;;;-5.72;100.00;144652.47;5112230;28;20207;-61
2024/01/10 02:52:44;;;;;;;6.00;5.40;;;;;;;-5.96;100.00;144592.72;5112189;28;20187;-60
2024/01/10 02:55:11;;;;;;;6.50;5.67;;;;;;;-6.17;100.00;144541.66;5112012;28;20235;-59
2024/01/10 02:57:38;;;;;;;6.00;5.50;;;;;;;-5.79;100.00;144635.03;5112290;28;20214;-60
2024/01/10 03:00:08;;;;;;;6.60;6.00;;;;;;;-5.72;100.00;144652.47;5112167;28;20237;-61
2024/01/10 03:02:36;;;;;;;8.23;5.27;;;;;;;-6.09;100.00;144562.84;5112254;28;20244;-60
2024/01/10 03:05:03;;;;;;;6.73;6.00;;;;;;;-5.74;100.00;144648.75;5112197;28;20188;-60
2024/01/10 03:07:30;;;;;;;5.90;5.50;;;;;;;-6.05;100.00;144571.56;5113452;28;20187;-60
2024/01/10 03:09:57;;;;;;;7.00;6.27;;;;;;;-6.34;100.00;144500.56;5116245;28;20597;-60
2024/01/10 03:12:24;;;;;;;5.90;5.50;;;;;;;-6.08;100.00;144565.34;5116515;27;20206;-60
2024/01/10 03:14:51;;;;;;;5.83;5.50;;;;;;;-6.01;100.00;144582.75;5116477;27;20651;-60
2024/01/10 03:17:20;;;;;;;6.70;5.73;;;;;;;-5.86;100.00;144618.88;5116140;28;20221;-60
2024/01/10 03:19:47;;;;;;;6.30;5.90;;;;;;;-5.77;100.00;144640.06;5116569;28;20198;-60
2024/01/10 03:22:14;;;;;;;6.43;6.03;;;;;;;-5.75;100.00;144646.25;5116083;27;20633;-60
2024/01/10 03:24:41;;;;;;;5.90;5.50;;;;;;;-5.75;100.00;144646.25;5116287;28;20638;-61
2024/01/10 03:27:09;;;;;;;9.70;6.97;;;;;;;-5.92;100.00;144603.94;5116363;28;20195;-60
2024/01/10 03:29:36;;;;;;;6.90;6.23;;;;;;;-6.39;100.00;144488.09;5116366;28;20183;-59
2024/01/10 03:32:04;;;;;;;6.50;5.97;;;;;;;-6.21;100.00;144531.69;5116336;28;20626;-61
2024/01/10 03:34:32;;;;;;;6.93;6.43;;;;;;;-6.23;100.00;144527.94;5116120;28;20607;-61
2024/01/10 03:36:59;;;;;;;8.27;5.87;;;;;;;-6.30;100.00;144509.28;5115971;28;20299;-61
2024/01/10 03:39:26;;;;;;;6.33;5.73;;;;;;;-6.29;100.00;144513.03;5115891;28;20183;-59
2024/01/10 03:41:53;;;;;;;6.33;5.77;;;;;;;-6.05;100.00;144571.56;5116220;28;20647;-61
2024/01/10 03:44:20;;;;;;;5.80;5.27;;;;;;;-5.96;100.00;144592.72;5116589;28;20206;-61
2024/01/10 03:46:47;;;;;;;7.23;5.33;;;;;;;-5.98;100.00;144587.78;5115645;28;20245;-60
2024/01/10 03:49:14;;;;;;;6.23;4.60;;;;;;;-6.15;100.00;144546.63;5115586;28;20228;-61
2024/01/10 03:51:43;;;;;;;6.13;5.73;;;;;;;-6.06;100.00;144570.31;5115490;28;20211;-60
2024/01/10 03:54:10;;;;;;;13.40;5.80;;;;;;;-6.30;100.00;144510.53;5115150;28;20225;-60
2024/01/10 03:56:37;;;;;;;5.87;5.43;;;;;;;-6.18;100.00;144540.41;5115371;28;20183;-60
2024/01/10 03:59:04;;;;;;;6.67;5.83;;;;;;;-6.63;100.00;144428.34;5115678;27;20607;-60
2024/01/10 04:01:31;;;;;;;6.10;5.67;;;;;;;-6.18;100.00;144540.41;5115230;28;20183;-60
2024/01/10 04:03:58;;;;;;;7.47;5.13;;;;;;;-6.11;100.00;144557.84;5115392;28;20209;-61
2024/01/10 04:06:26;;;;;;;6.53;5.83;;;;;;;-6.04;100.00;144574.06;5115236;28;20184;-61
2024/01/10 04:08:54;;;;;;;6.27;5.37;;;;;;;-6.51;100.00;144459.47;5115281;28;20186;-61
2024/01/10 04:11:21;;;;;;;6.03;5.60;;;;;;;-6.14;100.00;144550.38;5114991;28;20673;-59
2024/01/10 04:13:48;;;;;;;6.47;6.07;;;;;;;-6.04;100.00;144574.06;5115483;28;20260;-61
2024/01/10 04:16:15;;;;;;;6.37;5.83;;;;;;;-6.29;100.00;144513.03;5115086;28;20175;-61
2024/01/10 04:18:42;;;;;;;7.60;5.47;;;;;;;-5.94;100.00;144597.75;5114680;28;20236;-60
2024/01/10 04:21:09;;;;;;;6.63;5.93;;;;;;;-6.20;100.00;144535.47;5114563;28;20248;-60
2024/01/10 04:23:36;;;;;;;5.80;5.40;;;;;;;-5.98;100.00;144587.78;5115199;28;20179;-60
2024/01/10 04:26:05;;;;;;;5.90;5.50;;;;;;;-5.98;100.00;144587.78;5115242;28;20251;-61
2024/01/10 04:28:32;;;;;;;9.20;5.83;;;;;;;-6.08;100.00;144565.34;5114854;28;20188;-61
2024/01/10 04:30:59;;;;;;;6.13;5.67;;;;;;;-6.13;100.00;144551.63;5114746;28;20203;-61
2024/01/10 04:33:26;;;;;;;5.87;5.37;;;;;;;-5.90;100.00;144607.69;5114972;28;20182;-59
2024/01/10 04:35:53;;;;;;;6.10;5.50;;;;;;;-6.28;100.00;144515.50;5114924;28;20561;-60
2024/01/10 04:38:20;;;;;;;5.07;4.77;;;;;;;-6.17;100.00;144542.91;5114942;28;20630;-60
2024/01/10 04:40:47;;;;;;;5.87;5.43;;;;;;;-6.23;100.00;144527.94;5114814;28;20604;-61
2024/01/10 04:43:16;;;;;;;5.47;5.07;;;;;;;-6.08;100.00;144565.34;5114931;28;20625;-61
2024/01/10 04:45:43;;;;;;;6.70;6.10;;;;;;;-5.97;100.00;144590.22;5114273;28;20187;-60
2024/01/10 04:48:10;;;;;;;5.67;5.17;;;;;;;-6.09;100.00;144562.84;5114510;28;20619;-61
2024/01/10 04:50:37;;;;;;;4.80;4.50;;;;;;;-5.91;100.00;144605.19;5114219;27;20220;-60
2024/01/10 04:53:04;;;;;;;5.67;5.17;;;;;;;-5.80;100.00;144633.78;5114210;27;20187;-60
2024/01/10 04:55:32;;;;;;;5.37;5.03;;;;;;;-5.88;100.00;144613.91;5114247;28;20288;-60
2024/01/10 04:57:59;;;;;;;5.57;5.07;;;;;;;-5.86;100.00;144618.88;5114302;28;20187;-60
2024/01/10 05:00:28;;;;;;;9.83;5.30;;;;;;;-5.83;100.00;144625.06;5114103;28;20236;-60
2024/01/10 05:02:55;;;;;;;5.00;4.70;;;;;;;-5.64;100.00;144673.66;5114037;28;20245;-61
2024/01/10 05:05:23;;;;;;;4.87;4.50;;;;;;;-5.65;100.00;144671.19;5114384;28;20246;-60
2024/01/10 05:07:51;;;;;;;5.73;4.20;;;;;;;-5.62;100.00;144677.41;5113944;28;20187;-60
2024/01/10 05:10:18;;;;;;;4.57;4.27;;;;;;;-5.79;100.00;144636.28;5113838;28;20645;-61
2024/01/10 05:12:45;;;;;;;5.90;5.40;;;;;;;-5.56;100.00;144692.38;5114179;28;20615;-60
2024/01/10 05:15:12;;;;;;;11.47;4.97;;;;;;;-5.56;100.00;144692.38;5113626;28;20180;-61
2024/01/10 05:17:41;;;;;;;9.03;5.50;;;;;;;-5.48;100.00;144712.31;5113871;28;20194;-60
2024/01/10 05:20:09;;;;;;;4.87;4.57;;;;;;;-5.52;100.00;144702.34;5113796;28;20187;-60
2024/01/10 05:22:36;;;;;;;7.93;5.17;;;;;;;-5.35;100.00;144744.72;5113954;28;20543;-61
2024/01/10 05:25:05;;;;;;;5.47;4.63;;;;;;;-5.60;100.00;144682.41;5113502;28;20186;-61
2024/01/10 05:27:32;;;;;;;5.33;4.27;;;;;;;-5.30;100.00;144757.16;5113612;28;20187;-60
2024/01/10 05:30:00;;;;;;;5.83;4.10;;;;;;;-5.20;100.00;144780.84;5113801;28;20637;-60
2024/01/10 05:32:27;;;;;;;4.50;4.20;;;;;;;-5.24;100.00;144770.88;5112505;28;20666;-60
2024/01/10 05:34:55;;;;;;;6.43;4.10;;;;;;;-6.31;100.00;144506.78;5113392;28;20186;-61
2024/01/10 05:37:23;;;;;;;4.33;4.07;;;;;;;-5.57;100.00;144689.88;5113339;28;20187;-59
2024/01/10 05:39:50;;;;;;;3.97;3.67;;;;;;;-5.84;100.00;144622.56;5113172;28;20201;-59
2024/01/10 05:42:18;;;;;;;4.00;3.70;;;;;;;-5.13;100.00;144799.53;5113284;28;20193;-60
2024/01/10 05:44:45;;;;;;;6.60;3.40;;;;;;;-5.26;100.00;144767.13;5113361;28;20187;-61
2024/01/10 05:47:12;;;;;;;6.20;3.53;;;;;;;-5.13;100.00;144799.53;5113070;28;20186;-60
2024/01/10 05:49:39;;;;;;;3.77;3.07;;;;;;;-5.65;100.00;144669.94;5113390;28;20191;-60
2024/01/10 05:52:08;;;;;;;11.73;4.50;;;;;;;-5.25;100.00;144768.38;5112868;28;20203;-60
2024/01/10 05:54:35;;;;;;;4.97;3.17;;;;;;;-4.99;100.00;144833.22;5113067;28;20643;-60
2024/01/10 05:57:02;;;;;;;2.73;2.53;;;;;;;-5.02;100.00;144825.75;5113360;28;20534;-61
2024/01/10 05:59:30;;;;;;;5.23;3.37;;;;;;;-5.30;100.00;144755.91;5112868;28;20215;-60
2024/01/10 06:01:58;;;;;;;7.60;3.83;;;;;;;-5.32;100.00;144750.94;5113038;28;20218;-60
2024/01/10 06:04:27;;;;;;;2.83;2.63;;;;;;;-4.80;100.00;144879.38;5113385;28;20726;-61
2024/01/10 06:06:54;;;;;;;3.37;2.40;;;;;;;-4.91;100.00;144851.91;5112864;28;20593;-60
2024/01/10 06:09:25;;;;;;;2.70;2.23;;;;;;;-4.73;100.00;144898.06;5112782;28;20183;-60
2024/01/10 06:11:52;;;;;;;3.10;2.90;;;;;;;-4.63;100.00;144921.78;5112914;28;20665;-61
2024/01/10 06:14:19;;;;;;;2.83;2.23;;;;;;;-4.39;100.00;144981.66;5112720;28;20191;-61
2024/01/10 06:16:46;;;;;;;3.23;3.03;;;;;;;-4.20;100.00;145029.03;5113466;28;20187;-60
2024/01/10 06:19:13;;;;;;;6.90;2.63;;;;;;;-4.45;100.00;144965.41;5113637;28;20187;-61
2024/01/10 06:21:41;;;;;;;2.97;2.77;;;;;;;-3.69;98.45;145153.84;5114227;28;20198;-61
2024/01/10 06:24:08;;;;;;;12.63;3.67;;;;;;;-3.52;96.60;145196.28;5113406;28;20283;-60
2024/01/10 06:26:36;;;;;;;9.73;2.70;;;;;;;-3.56;90.18;145186.31;5112704;28;20211;-60
2024/01/10 06:29:04;;;;;;;5.07;2.67;;;;;;;-3.53;87.02;145192.59;5112106;28;20183;-61
2024/01/10 06:31:31;;;;;;;3.37;2.10;;;;;;;-3.47;85.34;145208.78;5112343;28;20211;-61
2024/01/10 06:33:58;;;;;;;4.03;2.73;;;;;;;-3.42;83.89;145220.03;5112018;28;20184;-60
2024/01/10 06:36:25;;;;;;;4.83;3.03;;;;;;;-3.37;83.14;145233.78;5112207;28;20218;-62
2024/01/10 06:38:52;;;;;;;3.80;3.57;;;;;;;-3.46;82.63;145211.31;5111945;28;20187;-62
2024/01/10 06:41:24;;;;;;;5.17;4.77;;;;;;;-3.78;82.04;145131.41;5112341;28;20240;-62
2024/01/10 06:43:52;;;;;;;2.87;2.67;;;;;;;-3.59;81.87;145178.84;5111769;28;20271;-62
2024/01/10 06:46:20;;;;;;;3.07;2.87;;;;;;;-3.34;79.35;145241.25;5112098;28;20615;-62
2024/01/10 06:48:47;;;;;;;3.63;2.63;;;;;;;-3.32;79.32;145246.28;5111790;28;20241;-62
2024/01/10 06:51:15;;;;;;;5.80;3.00;;;;;;;-3.21;78.86;145272.47;5111976;28;20684;-62
2024/01/10 06:53:42;;;;;;;7.50;3.83;;;;;;;-3.08;78.27;145304.97;5111677;28;20191;-62
2024/01/10 06:56:10;;;;;;;5.57;3.00;;;;;;;-2.42;77.01;145468.63;5112096;28;20655;-61
2024/01/10 06:58:39;;;;;;;8.63;2.90;;;;;;;-2.02;75.45;145566.16;5111829;28;20240;-61
2024/01/10 07:01:13;;;;;;;10.43;3.53;;;;;;;-1.70;73.10;145646.22;5111850;28;20202;-61
2024/01/10 07:03:40;;;;;;;8.17;3.80;;;;;;;-1.65;71.05;145657.44;5111770;28;20226;-62
2024/01/10 07:06:07;;;;;;;5.30;3.60;;;;;;;-1.02;69.60;145813.88;5112342;28;20184;-62
2024/01/10 07:08:34;;;;;;;7.67;3.60;;;;;;;-1.17;68.87;145776.28;5112111;28;20672;-62
2024/01/10 07:11:02;;;;;;;4.90;3.47;;;;;;;-1.53;70.19;145688.69;5111949;28;20737;-63
2024/01/10 07:13:29;;;;;;;4.60;4.30;;;;;;;-0.81;71.38;145866.44;5112244;28;20187;-63
2024/01/10 07:15:56;;;;;;;4.37;4.00;;;;;;;-0.31;66.22;145989.13;5111791;28;20198;-62
2024/01/10 07:18:24;;;;;;;4.80;4.40;;;;;;;0.09;64.84;146089.31;5112158;28;20534;-63
2024/01/10 07:20:52;;;;;;;7.37;4.63;;;;;;;0.06;64.77;146081.78;5111900;28;20188;-62
2024/01/10 07:23:20;;;;;;;4.20;4.00;;;;;;;-0.06;64.18;146051.75;5111763;28;20525;-62
2024/01/10 07:25:47;;;;;;;7.33;4.60;;;;;;;0.32;64.79;146145.69;5111882;28;20203;-61
2024/01/10 07:28:14;;;;;;;8.40;5.03;;;;;;;-0.06;63.89;146053.00;5111866;28;20611;-62
2024/01/10 07:30:41;;;;;;;5.07;4.10;;;;;;;-0.53;65.43;145936.53;5111506;28;20234;-62
2024/01/10 07:33:08;;;;;;;8.70;4.80;;;;;;;0.07;65.82;146084.31;5111857;28;20534;-62
2024/01/10 07:35:37;;;;;;;5.37;4.97;;;;;;;0.90;64.53;146289.81;5111992;28;20240;-63
2024/01/10 07:38:07;;;;;;;5.47;5.07;;;;;;;1.51;62.06;146440.31;5111830;28;20187;-62
2024/01/10 07:40:34;;;;;;;6.17;5.70;;;;;;;1.68;60.58;146484.22;5111604;28;20256;-63
2024/01/10 07:43:01;;;;;;;5.73;5.43;;;;;;;2.14;58.08;146598.41;5111851;28;20184;-63
2024/01/10 07:45:28;;;;;;;4.77;4.47;;;;;;;2.69;57.32;146733.97;5111354;28;20188;-62
2024/01/10 07:47:56;;;;;;;4.40;4.20;;;;;;;2.58;55.35;146706.38;5111639;28;20213;-62
2024/01/10 07:50:27;;;;;;;5.73;4.27;;;;;;;3.55;54.65;146948.81;5111536;28;20233;-62
2024/01/10 07:52:58;;;;;;;4.30;3.90;;;;;;;4.42;52.70;147165.00;5112037;28;20204;-62
2024/01/10 07:55:25;;;;;;;3.80;3.50;;;;;;;4.23;49.97;147115.97;5113548;28;20226;-62
2024/01/10 07:57:52;;;;;;;3.30;3.10;;;;;;;4.22;49.65;147113.44;5108436;28;20535;-63
2024/01/10 08:00:20;;;;;;;4.57;3.37;;;;;;;3.68;51.04;146980.22;5094933;28;20180;-63
2024/01/10 08:02:48;;;;;;;3.63;3.43;;;;;;;3.72;50.10;146989.00;5094894;28;20593;-62
2024/01/10 08:05:15;;;;;;;4.27;3.73;;;;;;;4.23;51.93;147115.97;5094689;28;20253;-62
2024/01/10 08:07:42;;;;;;;3.97;3.67;;;;;;;4.66;50.06;147224.13;5095125;28;20184;-62
2024/01/10 08:10:13;;;;;;;6.27;3.60;;;;;;;5.10;50.48;147333.56;5094929;28;20188;-61
2024/01/10 08:12:41;;;;;;;3.47;3.17;;;;;;;5.61;48.59;147459.41;5094607;28;20276;-63
2024/01/10 08:15:10;;;;;;;4.00;3.63;;;;;;;6.08;47.19;147577.81;5094434;28;20189;-62
2024/01/10 08:17:37;;;;;;;4.30;4.00;;;;;;;6.89;46.22;147779.41;5094442;28;20184;-62
2024/01/10 08:20:06;;;;;;;5.53;5.03;;;;;;;7.84;45.23;148016.44;5094236;28;20188;-62
2024/01/10 08:22:33;;;;;;;4.40;4.10;;;;;;;7.87;45.04;148022.72;5094159;28;20180;-61
2024/01/10 08:25:00;;;;;;;6.83;4.97;;;;;;;8.04;45.40;148065.59;5094487;28;20191;-63
2024/01/10 08:27:29;;;;;;;9.40;6.07;;;;;;;9.13;44.04;148338.22;5094618;28;20271;-62
2024/01/10 08:29:56;;;;;;;6.83;6.17;;;;;;;10.05;43.14;148569.41;5093996;28;20191;-62
2024/01/10 08:32:23;;;;;;;6.13;4.30;;;;;;;10.59;41.14;148703.38;5093990;28;20207;-62
2024/01/10 08:34:50;;;;;;;6.07;5.00;;;;;;;10.03;41.29;148563.06;5094285;28;20304;-62
2024/01/10 08:37:18;;;;;;;5.00;4.53;;;;;;;8.83;41.27;148262.47;5094096;28;20243;-62
2024/01/10 08:39:45;;;;;;;5.50;5.20;;;;;;;9.53;42.15;148439.28;5094149;28;20642;-62
2024/01/10 08:42:12;;;;;;;4.37;4.07;;;;;;;8.83;41.65;148262.47;5093976;28;20180;-62
2024/01/10 08:44:40;;;;;;;4.27;3.97;;;;;;;8.41;42.41;148159.00;5093872;28;20196;-62
2024/01/10 08:47:07;;;;;;;4.67;4.20;;;;;;;7.67;43.18;147973.56;5093622;28;20184;-61
2024/01/10 08:49:36;;;;;;;3.37;3.17;;;;;;;7.69;43.78;147978.56;5093989;28;20638;-62
2024/01/10 08:52:03;;;;;;;3.93;3.73;;;;;;;7.62;43.54;147960.94;5093389;28;20203;-62
2024/01/10 08:54:30;;;;;;;4.37;3.97;;;;;;;6.81;44.45;147759.25;5093817;28;20243;-62
2024/01/10 08:56:58;;;;;;;3.93;3.57;;;;;;;7.40;44.28;147905.44;5093501;28;20188;-62
2024/01/10 08:59:25;;;;;;;13.87;4.47;;;;;;;7.74;43.55;147991.19;5093727;28;20627;-61
2024/01/10 09:01:54;;;;;;;10.30;4.03;;;;;;;8.83;43.36;148262.47;5093661;28;20183;-62
2024/01/10 09:04:21;;;;;;;3.70;3.50;;;;;;;10.08;40.52;148576.97;5093633;28;20188;-62
2024/01/10 09:06:48;;;;;;;4.43;4.23;;;;;;;10.73;40.46;148737.53;5093682;28;20188;-61
2024/01/10 09:09:15;;;;;;;4.27;4.03;;;;;;;12.09;38.15;149077.84;5093629;28;20623;-62
2024/01/10 09:11:42;;;;;;;8.20;5.10;;;;;;;12.00;38.92;149056.31;5093685;28;20579;-62
2024/01/10 09:14:09;;;;;;;5.17;4.97;;;;;;;13.45;37.66;149419.72;5093680;28;20184;-61
2024/01/10 09:16:38;;;;;;;5.20;4.67;;;;;;;14.29;36.92;149628.88;5093197;28;20276;-61
2024/01/10 09:19:07;;;;;;;6.47;4.57;;;;;;;13.27;36.46;149375.44;5093024;28;20231;-61
2024/01/10 09:21:34;;;;;;;4.43;4.20;;;;;;;14.59;35.46;149705.00;5093378;28;20180;-61
2024/01/10 09:24:04;;;;;;;4.83;4.53;;;;;;;14.67;35.30;149725.28;5093514;28;20611;-61
2024/01/10 09:26:32;;;;;;;4.70;4.50;;;;;;;14.70;35.08;149731.59;5093211;28;20215;-61
2024/01/10 09:28:59;;;;;;;4.67;4.37;;;;;;;14.82;34.70;149763.31;5092986;28;20230;-62
2024/01/10 09:31:26;;;;;;;5.07;4.87;;;;;;;12.86;36.22;149270.25;5092630;28;20187;-61
2024/01/10 09:33:53;;;;;;;11.40;4.83;;;;;;;13.40;36.06;149405.81;5092736;28;20180;-61
2024/01/10 09:36:21;;;;;;;5.90;5.40;;;;;;;14.52;35.15;149687.22;5092712;28;20184;-61
2024/01/10 09:38:48;;;;;;;5.70;5.20;;;;;;;14.70;35.49;149732.88;5092681;28;20189;-62
2024/01/10 09:41:16;;;;;;;10.47;5.50;;;;;;;14.12;34.73;149588.31;5092729;28;20230;-62
2024/01/10 09:43:43;;;;;;;6.10;5.80;;;;;;;14.82;35.06;149763.31;5092800;28;20210;-62
2024/01/10 09:46:11;;;;;;;5.80;5.50;;;;;;;14.82;34.58;149762.03;5092584;28;20180;-62
2024/01/10 09:48:38;;;;;;;5.57;5.27;;;;;;;12.77;36.48;149249.97;5092379;28;20283;-62
2024/01/10 09:51:05;;;;;;;9.23;5.40;;;;;;;11.49;38.56;148927.22;5093161;28;20184;-61
2024/01/10 09:53:36;;;;;;;6.20;5.90;;;;;;;12.08;38.48;149076.56;5092297;28;20253;-62
2024/01/10 09:56:05;;;;;;;5.87;5.63;;;;;;;12.40;37.53;149155.00;5093449;28;20692;-62
2024/01/10 09:58:38;;;;;;;6.37;6.00;;;;;;;13.01;36.85;149308.25;5092475;28;20200;-62
2024/01/10 10:01:06;;;;;;;6.83;6.33;;;;;;;12.99;36.57;149303.16;5092024;28;20642;-61
2024/01/10 10:03:38;;;;;;;8.27;5.63;;;;;;;13.52;35.90;149437.50;5092554;28;20263;-61
2024/01/10 10:06:06;;;;;;;6.57;6.17;;;;;;;13.01;36.44;149309.50;5092462;28;20184;-64
2024/01/10 10:08:34;;;;;;;6.93;6.40;;;;;;;13.20;37.01;149357.66;5092497;28;20249;-61
2024/01/10 10:11:02;;;;;;;6.60;6.10;;;;;;;13.40;36.85;149405.81;5092031;28;20246;-61
2024/01/10 10:13:30;;;;;;;6.10;5.60;;;;;;;13.38;36.09;149400.72;5092244;28;20574;-62
2024/01/10 10:16:01;;;;;;;6.47;6.03;;;;;;;12.15;36.45;149094.25;5092403;28;20238;-62
2024/01/10 10:18:28;;;;;;;6.00;5.60;;;;;;;11.91;37.78;149033.53;5091492;28;20270;-61
2024/01/10 10:21:10;;;;;;;6.80;6.30;;;;;;;12.16;37.57;149096.81;5092202;28;20639;-61
2024/01/10 10:23:39;;;;;;;7.17;6.57;;;;;;;12.17;38.69;149098.09;5091380;28;20184;-62
2024/01/10 10:26:19;;;;;;;8.13;7.55;;;;;;;11.55;38.91;148943.63;5091025;28;20444;-61
2024/01/10 10:28:46;;;;;;;11.20;10.40;;;;;;;11.28;40.07;148875.38;5091136;28;20653;-62
2024/01/10 10:31:14;;;;;;;9.80;8.67;;;;;;;12.33;39.35;149138.56;5091322;28;20187;-64
2024/01/10 10:33:42;;;;;;;9.17;8.40;;;;;;;12.96;38.30;149296.84;5091368;28;20582;-63
2024/01/10 10:36:09;;;;;;;7.90;7.40;;;;;;;12.39;38.69;149153.75;5091574;28;20241;-62
2024/01/10 10:38:38;;;;;;;7.13;6.73;;;;;;;11.17;40.11;148847.50;5091911;28;20618;-63
2024/01/10 10:41:07;;;;;;;15.87;7.90;;;;;;;11.52;39.75;148936.06;5091675;28;20700;-62
2024/01/10 10:43:37;;;;;;;6.10;5.80;;;;;;;12.20;37.80;149105.66;5091945;28;20275;-62
2024/01/10 10:46:05;;;;;;;8.47;6.27;;;;;;;12.78;37.26;149251.22;5092121;28;20190;-62
2024/01/10 10:48:34;;;;;;;6.57;6.07;;;;;;;12.56;36.75;149195.56;5091935;28;20199;-62
2024/01/10 10:51:07;;;;;;;6.90;6.30;;;;;;;12.45;37.66;149168.94;5091627;28;20194;-63
2024/01/10 10:53:35;;;;;;;6.50;6.20;;;;;;;12.75;37.22;149243.66;5091341;28;20203;-62
2024/01/10 10:56:07;;;;;;;6.30;6.00;;;;;;;13.07;36.90;149324.69;5091712;28;20279;-62
2024/01/10 10:58:36;;;;;;;7.20;6.80;;;;;;;12.36;37.20;149146.16;5091322;28;20187;-62
2024/01/10 11:01:06;;;;;;;7.07;6.57;;;;;;;12.82;38.03;149261.34;5091559;28;20661;-62
2024/01/10 11:03:36;;;;;;;7.83;7.20;;;;;;;13.68;36.77;149478.03;5091459;28;20191;-62
2024/01/10 11:06:05;;;;;;;6.83;6.43;;;;;;;14.47;35.71;149674.56;5091423;28;20219;-63
2024/01/10 11:08:36;;;;;;;9.83;7.43;;;;;;;13.93;36.00;149540.13;5091684;28;20199;-62
2024/01/10 11:11:08;;;;;;;7.50;6.90;;;;;;;14.71;35.21;149735.44;5091346;28;20237;-62
2024/01/10 11:13:55;;;;;;;7.40;6.10;;;;;;;14.02;35.21;149562.94;5091303;28;20273;-62
2024/01/10 11:16:55;;;;;;;6.87;6.37;;;;;;;11.99;37.19;149053.78;5091581;28;20187;-63
2024/01/10 11:19:48;;;;;;;7.37;6.20;;;;;;;11.64;37.56;148965.16;5089262;28;20662;-62
2024/01/10 11:22:29;;;;;;;7.13;6.70;;;;;;;11.24;38.75;148866.53;5092210;28;20221;-63
2024/01/10 11:24:56;;;;;;;6.67;6.30;;;;;;;10.61;39.41;148708.44;5091586;28;20188;-62